Somerset Center, Michigan
Current Conditions -  °F | °C
As of 3:55 PM on Saturday 20 Dec 2014 (Local Time) from KJYM Reporting Station
Broken Clouds Broken Clouds  
Wind Chill: 30°   Ceiling: 2400
Heat Index: 30°   Visibility: 10mi
Dew Point: 22°   Wind: 0mph
Humidity: 72%   Direction: NA
Pressure: 30.23"   Gusts: NA
Location:  42.05°N, 84.41°W
Report Text: KJYM 202055Z AUTO 00000KT 10SM BKN024 120 M01/M06 A3023 RMK AO2 T10131058
Loading
Personal Weather Stations






























Interactive Weather Map New forecast layout! Learn more

10-Day Weather Forecast

Advertisements
Track Severe Weather on mobile